createdAt,value
2018-04-12T00:00:21.959Z,88.12
2018-04-12T00:01:21.866Z,88.40
2018-04-12T00:02:21.775Z,88.88
2018-04-12T00:03:21.716Z,88.50
2018-04-12T00:04:21.595Z,88.21
2018-04-12T00:05:21.500Z,88.69
2018-04-12T00:06:21.410Z,88.31
2018-04-12T00:07:21.318Z,89.07
2018-04-12T00:08:21.255Z,88.98
2018-04-12T00:09:21.133Z,89.26
2018-04-12T00:10:21.041Z,89.07
2018-04-12T00:11:20.949Z,88.78
2018-04-12T00:12:20.856Z,88.98
2018-04-12T00:13:20.799Z,88.21
2018-04-12T00:14:20.673Z,88.50
2018-04-12T00:15:20.584Z,88.78
2018-04-12T00:16:20.580Z,88.50
2018-04-12T00:17:20.401Z,88.31
2018-04-12T00:18:20.338Z,88.40
2018-04-12T00:19:20.218Z,88.59
2018-04-12T00:20:20.120Z,88.31
2018-04-12T00:21:20.029Z,88.31
2018-04-12T00:22:19.941Z,88.21
2018-04-12T00:23:19.968Z,88.02
2018-04-12T00:24:19.756Z,88.31
2018-04-12T00:25:19.664Z,88.40
2018-04-12T00:26:19.572Z,87.83
2018-04-12T00:27:19.480Z,88.21
2018-04-12T00:28:19.423Z,87.83
2018-04-12T00:29:19.298Z,88.31
2018-04-12T00:30:19.299Z,88.26
2018-04-12T00:31:19.116Z,87.68
2018-04-12T00:32:19.024Z,87.97
2018-04-12T00:33:18.969Z,87.78
2018-04-12T00:34:18.842Z,87.49
2018-04-12T00:35:18.745Z,87.45
2018-04-12T00:36:18.655Z,87.68
2018-04-12T00:37:18.657Z,87.78
2018-04-12T00:38:18.504Z,87.97
2018-04-12T00:39:18.379Z,87.87
2018-04-12T00:40:18.290Z,87.59
2018-04-12T00:41:18.198Z,87.40
2018-04-12T00:42:18.107Z,87.49
2018-04-12T00:43:18.046Z,87.78
2018-04-12T00:44:18.015Z,87.40
2018-04-12T00:45:17.831Z,87.59
2018-04-12T00:46:17.756Z,87.87
2018-04-12T00:47:17.648Z,87.30
2018-04-12T00:48:17.585Z,87.59
2018-04-12T00:49:17.471Z,87.40
2018-04-12T00:50:17.371Z,87.59
2018-04-12T00:51:17.374Z,87.97
2018-04-12T00:52:17.188Z,87.49
2018-04-12T00:53:17.097Z,87.78
2018-04-12T00:54:17.033Z,87.49
2018-04-12T00:55:16.916Z,87.40
2018-04-12T00:56:16.819Z,87.59
2018-04-12T00:57:16.732Z,87.40
2018-04-12T00:58:16.730Z,87.59
2018-04-12T00:59:16.581Z,87.59
2018-04-12T01:00:16.456Z,87.59
2018-04-12T01:01:16.366Z,87.59
2018-04-12T01:02:16.271Z,87.40
2018-04-12T01:03:16.187Z,88.26
2018-04-12T01:04:16.122Z,87.40
2018-04-12T01:05:16.089Z,87.49
2018-04-12T01:06:15.907Z,87.21
2018-04-12T01:07:15.817Z,87.11
2018-04-12T01:08:15.726Z,87.30
2018-04-12T01:09:15.665Z,87.68
2018-04-12T01:10:15.539Z,87.40
2018-04-12T01:11:15.450Z,87.87
2018-04-12T01:12:15.450Z,87.68
2018-04-12T01:13:15.271Z,88.16
2018-04-12T01:14:15.208Z,87.68
2018-04-12T01:15:15.083Z,87.30
2018-04-12T01:16:14.989Z,87.97
2018-04-12T01:17:14.897Z,87.30
2018-04-12T01:18:14.805Z,88.16
2018-04-12T01:19:14.839Z,87.78
2018-04-12T01:20:14.622Z,88.07
2018-04-12T01:21:14.531Z,87.59
2018-04-12T01:22:14.441Z,87.68
2018-04-12T01:23:14.348Z,87.97
2018-04-12T01:24:14.286Z,87.74
2018-04-12T01:25:14.167Z,87.74
2018-04-12T01:26:14.166Z,87.45
2018-04-12T01:27:13.979Z,87.93
2018-04-12T01:28:13.890Z,88.21
2018-04-12T01:29:13.831Z,88.31
2018-04-12T01:30:13.722Z,88.31
2018-04-12T01:31:13.616Z,89.07
2018-04-12T01:32:13.525Z,89.07
2018-04-12T01:33:13.531Z,89.36
2018-04-12T01:34:13.371Z,88.84
2018-04-12T01:35:13.250Z,89.22
2018-04-12T01:36:13.159Z,89.31
2018-04-12T01:37:13.067Z,89.69
2018-04-12T01:38:12.973Z,90.08
2018-04-12T01:39:12.916Z,89.89
2018-04-12T01:40:12.790Z,90.26
2018-04-12T01:41:12.700Z,90.26
2018-04-12T01:42:12.607Z,90.22
2018-04-12T01:43:12.519Z,90.41
2018-04-12T01:44:12.451Z,90.60
2018-04-12T01:45:12.334Z,90.41
2018-04-12T01:46:12.242Z,90.41
2018-04-12T01:47:12.147Z,90.70
2018-04-12T01:48:12.055Z,90.60
2018-04-12T01:49:11.995Z,90.41
2018-04-12T01:50:11.885Z,89.50
2018-04-12T01:51:11.789Z,89.98
2018-04-12T01:52:11.689Z,90.26
2018-04-12T01:53:11.608Z,89.60
2018-04-12T01:54:11.535Z,89.17
2018-04-12T01:55:11.414Z,88.78
2018-04-12T01:56:11.319Z,89.26
2018-04-12T01:57:11.231Z,88.69
2018-04-12T01:58:11.138Z,88.88
2018-04-12T01:59:11.077Z,89.26
2018-04-12T02:00:10.951Z,88.98
2018-04-12T02:01:11.426Z,88.31
2018-04-12T02:02:10.769Z,88.02
2018-04-12T02:03:10.679Z,88.40
2018-04-12T02:04:10.614Z,88.50
2018-04-12T02:05:10.494Z,87.74
2018-04-12T02:06:10.402Z,88.31
2018-04-12T02:07:10.316Z,88.31
2018-04-12T02:08:10.215Z,88.59
2018-04-12T02:09:10.130Z,88.50
2018-04-12T02:10:10.070Z,88.59
2018-04-12T02:11:09.947Z,88.31
2018-04-12T02:12:09.855Z,88.31
2018-04-12T02:13:09.763Z,88.50
2018-04-12T02:14:09.673Z,88.50
2018-04-12T02:15:09.608Z,88.69
2018-04-12T02:16:09.483Z,88.31
2018-04-12T02:17:09.396Z,88.12
2018-04-12T02:18:09.408Z,88.40
2018-04-12T02:19:09.215Z,89.07
2018-04-12T02:20:09.148Z,88.69
2018-04-12T02:21:09.028Z,88.59
2018-04-12T02:22:08.933Z,88.88
2018-04-12T02:23:08.847Z,88.88
2018-04-12T02:24:08.751Z,88.88
2018-04-12T02:25:08.688Z,88.78
2018-04-12T02:26:08.570Z,89.26
2018-04-12T02:27:08.476Z,89.26
2018-04-12T02:28:08.388Z,89.07
2018-04-12T02:29:08.293Z,89.45
2018-04-12T02:30:08.239Z,88.69
2018-04-12T02:31:08.168Z,88.78
2018-04-12T02:32:08.018Z,89.12
2018-04-12T02:33:07.923Z,88.98
2018-04-12T02:34:07.833Z,88.98
2018-04-12T02:35:07.866Z,89.17
2018-04-12T02:36:07.651Z,88.98
2018-04-12T02:37:07.559Z,89.03
2018-04-12T02:38:07.471Z,88.84
2018-04-12T02:39:07.376Z,89.31
2018-04-12T02:40:07.312Z,89.22
2018-04-12T02:41:07.189Z,89.22
2018-04-12T02:42:07.121Z,89.50
2018-04-12T02:43:07.011Z,89.60
2018-04-12T02:44:06.917Z,89.69
2018-04-12T02:45:06.855Z,89.12
2018-04-12T02:46:06.732Z,89.60
2018-04-12T02:47:06.639Z,90.08
2018-04-12T02:48:06.548Z,89.69
2018-04-12T02:49:06.453Z,90.08
2018-04-12T02:50:06.396Z,89.98
2018-04-12T02:51:06.273Z,89.40
2018-04-12T02:52:06.185Z,89.79
2018-04-12T02:53:06.093Z,89.69
2018-04-12T02:54:05.996Z,89.50
2018-04-12T02:55:05.935Z,89.60
2018-04-12T02:56:05.903Z,89.60
2018-04-12T02:57:05.733Z,89.69
2018-04-12T02:58:05.629Z,89.79
2018-04-12T02:59:05.534Z,90.17
2018-04-12T03:00:05.474Z,90.17
2018-04-12T03:01:05.353Z,90.08
2018-04-12T03:02:05.259Z,89.89
2018-04-12T03:03:05.278Z,90.17
2018-04-12T03:04:05.077Z,90.08
2018-04-12T03:05:05.013Z,89.79
2018-04-12T03:06:04.893Z,90.55
2018-04-12T03:07:04.805Z,90.17
2018-04-12T03:08:04.707Z,89.50
2018-04-12T03:09:04.613Z,89.89
2018-04-12T03:10:04.649Z,89.84
2018-04-12T03:11:04.432Z,89.55
2018-04-12T03:12:04.337Z,89.84
2018-04-12T03:13:04.250Z,90.08
2018-04-12T03:14:04.155Z,89.75
2018-04-12T03:15:04.063Z,90.03
2018-04-12T03:16:04.000Z,90.12
2018-04-12T03:17:03.967Z,90.12
2018-04-12T03:18:03.783Z,90.41
2018-04-12T03:19:03.697Z,90.03
2018-04-12T03:20:03.606Z,90.41
2018-04-12T03:21:03.539Z,90.41
2018-04-12T03:22:03.416Z,90.31
2018-04-12T03:23:03.326Z,90.50
2018-04-12T03:24:03.340Z,90.22
2018-04-12T03:25:03.142Z,90.50
2018-04-12T03:26:03.074Z,90.41
2018-04-12T03:27:02.955Z,90.41
2018-04-12T03:28:02.861Z,90.41
2018-04-12T03:29:02.771Z,90.50
2018-04-12T03:30:02.679Z,90.41
2018-04-12T03:31:02.709Z,90.12
2018-04-12T03:32:02.495Z,90.50
2018-04-12T03:33:02.400Z,89.55
2018-04-12T03:34:02.308Z,90.31
2018-04-12T03:35:02.217Z,90.22
2018-04-12T03:36:02.152Z,90.60
2018-04-12T03:37:02.033Z,90.22
2018-04-12T03:38:02.030Z,90.41
2018-04-12T03:39:01.844Z,90.79
2018-04-12T03:40:01.752Z,90.12
2018-04-12T03:41:01.686Z,89.55
2018-04-12T03:42:01.567Z,90.41
2018-04-12T03:43:01.473Z,90.60
2018-04-12T03:44:01.380Z,90.22
2018-04-12T03:45:01.381Z,90.22
2018-04-12T03:46:01.229Z,90.12
2018-04-12T03:47:01.108Z,90.22
2018-04-12T03:48:01.011Z,90.60
2018-04-12T03:49:00.971Z,90.60
2018-04-12T03:50:00.883Z,90.60
2018-04-12T03:51:00.764Z,90.31
2018-04-12T03:52:00.732Z,90.22
2018-04-12T03:53:00.549Z,90.60
2018-04-12T03:54:00.456Z,90.41
2018-04-12T03:55:00.365Z,90.41
2018-04-12T03:56:00.303Z,90.79
2018-04-12T03:57:00.178Z,90.41
2018-04-12T03:58:00.089Z,90.41
2018-04-12T03:59:00.087Z,90.60
2018-04-12T03:59:59.902Z,90.79
2018-04-12T04:00:59.839Z,89.84
2018-04-12T04:01:59.718Z,90.41
2018-04-12T04:02:59.627Z,90.70
2018-04-12T04:03:59.533Z,90.50
2018-04-12T04:04:59.438Z,90.41
2018-04-12T04:05:59.377Z,90.31
2018-04-12T04:06:59.254Z,90.50
2018-04-12T04:07:59.163Z,90.03
2018-04-12T04:08:59.071Z,90.12
2018-04-12T04:09:58.976Z,90.50
2018-04-12T04:10:58.913Z,90.79
2018-04-12T04:11:58.792Z,90.41
2018-04-12T04:12:58.790Z,90.41
2018-04-12T04:13:58.608Z,90.41
2018-04-12T04:14:58.517Z,90.41
2018-04-12T04:15:58.458Z,90.50
2018-04-12T04:16:58.331Z,90.50
2018-04-12T04:17:58.238Z,90.31
2018-04-12T04:18:58.145Z,90.41
2018-04-12T04:19:58.052Z,90.60
2018-04-12T04:20:57.960Z,90.31
2018-04-12T04:21:57.900Z,90.41
2018-04-12T04:22:57.778Z,90.50
2018-04-12T04:23:57.683Z,90.41
2018-04-12T04:24:57.593Z,90.98
2018-04-12T04:25:57.503Z,90.22
2018-04-12T04:26:57.436Z,90.60
2018-04-12T04:27:57.315Z,90.12
2018-04-12T04:28:57.228Z,90.79
2018-04-12T04:29:57.131Z,90.89
2018-04-12T04:30:57.042Z,90.89
2018-04-12T04:31:56.979Z,90.22
2018-04-12T04:32:56.853Z,91.17
2018-04-12T04:33:56.763Z,90.89
2018-04-12T04:34:56.693Z,90.89
2018-04-12T04:35:56.573Z,90.22
2018-04-12T04:36:56.518Z,90.89
2018-04-12T04:37:56.395Z,90.79
2018-04-12T04:38:56.299Z,91.08
2018-04-12T04:39:56.223Z,90.31
2018-04-12T04:40:56.116Z,90.70
2018-04-12T04:41:56.053Z,90.60
2018-04-12T04:42:55.932Z,90.79
2018-04-12T04:43:55.839Z,90.60
2018-04-12T04:44:55.747Z,90.60
2018-04-12T04:45:55.655Z,91.17
2018-04-12T04:46:55.596Z,90.60
2018-04-12T04:47:55.766Z,90.98
2018-04-12T04:48:55.375Z,90.79
2018-04-12T04:49:55.283Z,90.98
2018-04-12T04:50:55.193Z,91.17
2018-04-12T04:51:55.138Z,90.60
2018-04-12T04:52:55.008Z,90.31
2018-04-12T04:53:54.915Z,91.08
2018-04-12T04:54:54.838Z,90.41
2018-04-12T04:55:54.742Z,90.60
2018-04-12T04:56:54.669Z,90.70
2018-04-12T04:57:54.546Z,90.79
2018-04-12T04:58:54.456Z,91.36
2018-04-12T04:59:54.360Z,90.70
2018-04-12T05:00:54.271Z,90.98
2018-04-12T05:01:54.210Z,91.08
2018-04-12T05:02:54.084Z,90.89
2018-04-12T05:03:53.995Z,91.08
2018-04-12T05:04:53.900Z,91.17
2018-04-12T05:05:53.807Z,91.27
2018-04-12T05:06:53.745Z,91.17
2018-04-12T05:07:53.621Z,90.60
2018-04-12T05:08:53.529Z,90.22
2018-04-12T05:09:53.439Z,90.70
2018-04-12T05:10:53.344Z,89.55
2018-04-12T05:11:53.256Z,90.41
2018-04-12T05:12:53.191Z,89.94
2018-04-12T05:13:53.069Z,90.12
2018-04-12T05:14:52.979Z,90.12
2018-04-12T05:15:52.887Z,90.03
2018-04-12T05:16:52.796Z,89.94
2018-04-12T05:17:52.730Z,90.26
2018-04-12T05:18:52.609Z,89.79
2018-04-12T05:19:52.514Z,89.89
2018-04-12T05:20:52.424Z,89.89
2018-04-12T05:21:52.334Z,89.60
2018-04-12T05:22:52.267Z,90.08
2018-04-12T05:23:52.147Z,90.26
2018-04-12T05:24:52.053Z,90.08
2018-04-12T05:25:51.963Z,90.17
2018-04-12T05:26:51.869Z,90.12
2018-04-12T05:27:51.863Z,90.08
2018-04-12T05:28:51.685Z,90.08
2018-04-12T05:29:51.596Z,89.98
2018-04-12T05:30:51.501Z,90.03
2018-04-12T05:31:51.409Z,89.79
2018-04-12T05:32:51.348Z,90.08
2018-04-12T05:33:51.227Z,89.69
2018-04-12T05:34:51.135Z,89.89
2018-04-12T05:35:51.041Z,89.60
2018-04-12T05:36:50.955Z,89.40
2018-04-12T05:37:50.888Z,89.50
2018-04-12T05:38:50.767Z,89.22
2018-04-12T05:39:50.672Z,89.60
2018-04-12T05:40:50.586Z,89.12
2018-04-12T05:41:50.488Z,89.17
2018-04-12T05:42:50.426Z,88.31
2018-04-12T05:43:50.394Z,89.07
2018-04-12T05:44:50.213Z,89.17
2018-04-12T05:45:50.124Z,88.88
2018-04-12T05:46:50.029Z,88.69
2018-04-12T05:47:49.970Z,88.50
2018-04-12T05:48:49.847Z,88.21
2018-04-12T05:49:49.757Z,87.54
2018-04-12T05:50:49.760Z,88.50
2018-04-12T05:51:49.575Z,88.50
2018-04-12T05:52:49.523Z,89.17
2018-04-12T05:53:49.391Z,89.17
2018-04-12T05:54:49.305Z,89.45
2018-04-12T05:55:49.207Z,89.17
2018-04-12T05:56:49.119Z,89.07
2018-04-12T05:57:49.126Z,89.26
2018-04-12T05:58:48.937Z,88.78
2018-04-12T05:59:48.846Z,88.78
2018-04-12T06:00:48.754Z,88.98
2018-04-12T06:01:48.663Z,88.88
2018-04-12T06:02:48.602Z,88.40
2018-04-12T06:03:48.481Z,88.31
2018-04-12T06:04:48.483Z,89.07
2018-04-12T06:05:48.299Z,88.59
2018-04-12T06:06:48.207Z,87.93
2018-04-12T06:07:48.144Z,87.74
2018-04-12T06:08:48.029Z,88.31
2018-04-12T06:09:47.938Z,88.31
2018-04-12T06:10:47.846Z,87.93
2018-04-12T06:11:47.850Z,88.31
2018-04-12T06:12:47.695Z,88.59
2018-04-12T06:13:47.574Z,87.54
2018-04-12T06:14:47.483Z,88.50
2018-04-12T06:15:47.393Z,88.50
2018-04-12T06:16:47.305Z,88.31
2018-04-12T06:17:47.211Z,88.21
2018-04-12T06:18:47.256Z,88.12
2018-04-12T06:19:47.032Z,88.12
2018-04-12T06:20:46.940Z,87.93
2018-04-12T06:21:46.854Z,87.54
2018-04-12T06:22:46.760Z,88.54
2018-04-12T06:23:46.700Z,87.87
2018-04-12T06:24:46.579Z,87.97
2018-04-12T06:25:46.584Z,88.26
2018-04-12T06:26:46.395Z,87.97
2018-04-12T06:27:46.309Z,88.35
2018-04-12T06:28:46.242Z,87.59
2018-04-12T06:29:46.123Z,88.16
2018-04-12T06:30:46.034Z,87.68
2018-04-12T06:31:45.944Z,88.26
2018-04-12T06:32:45.951Z,88.35
2018-04-12T06:33:45.790Z,87.78
2018-04-12T06:34:45.670Z,87.59
2018-04-12T06:35:45.579Z,87.97
2018-04-12T06:36:45.488Z,88.35
2018-04-12T06:37:45.416Z,88.35
2018-04-12T06:38:45.338Z,87.78
2018-04-12T06:39:45.315Z,88.45
2018-04-12T06:40:45.125Z,87.49
2018-04-12T06:41:45.038Z,87.78
2018-04-12T06:42:44.946Z,88.45
2018-04-12T06:43:44.887Z,87.87
2018-04-12T06:44:44.764Z,87.30
2018-04-12T06:45:44.673Z,87.59
2018-04-12T06:46:44.719Z,87.78
2018-04-12T06:47:44.491Z,87.78
2018-04-12T06:48:44.436Z,87.40
2018-04-12T06:49:44.309Z,86.82
2018-04-12T06:50:44.220Z,86.54
2018-04-12T06:51:44.129Z,87.11
2018-04-12T06:52:44.038Z,87.40
2018-04-12T06:53:43.978Z,87.25
2018-04-12T06:54:43.860Z,87.54
2018-04-12T06:55:43.767Z,85.63
2018-04-12T06:56:43.675Z,86.58
2018-04-12T06:57:43.589Z,85.91
2018-04-12T06:58:43.528Z,86.68
2018-04-12T06:59:43.405Z,86.01
2018-04-12T07:00:43.317Z,86.58
2018-04-12T07:01:43.231Z,87.54
2018-04-12T07:02:43.142Z,86.44
2018-04-12T07:03:43.075Z,86.63
2018-04-12T07:04:42.954Z,87.30
2018-04-12T07:05:42.865Z,87.63
2018-04-12T07:06:42.779Z,86.68
2018-04-12T07:07:42.686Z,86.87
2018-04-12T07:08:42.631Z,86.01
2018-04-12T07:09:42.505Z,86.49
2018-04-12T07:10:42.418Z,85.82
2018-04-12T07:11:42.325Z,86.68
2018-04-12T07:12:42.236Z,86.77
2018-04-12T07:13:42.181Z,86.49
2018-04-12T07:14:42.055Z,86.30
2018-04-12T07:15:41.966Z,85.91
2018-04-12T07:16:41.874Z,86.58
2018-04-12T07:17:41.788Z,86.68
2018-04-12T07:18:41.731Z,86.49
2018-04-12T07:19:41.606Z,86.68
2018-04-12T07:20:41.517Z,86.58
2018-04-12T07:21:41.429Z,86.68
2018-04-12T07:22:41.337Z,86.58
2018-04-12T07:23:41.277Z,86.77
2018-04-12T07:24:41.163Z,87.25
2018-04-12T07:25:41.069Z,85.97
2018-04-12T07:26:40.979Z,87.44
2018-04-12T07:27:40.891Z,87.54
2018-04-12T07:28:40.835Z,86.49
2018-04-12T07:29:40.714Z,86.58
2018-04-12T07:30:40.622Z,85.53
2018-04-12T07:31:40.531Z,86.15
2018-04-12T07:32:40.443Z,85.71
2018-04-12T07:33:40.354Z,85.90
2018-04-12T07:34:40.292Z,84.32
2018-04-12T07:35:40.173Z,84.52
2018-04-12T07:36:40.085Z,84.28
2018-04-12T07:37:39.993Z,83.99
2018-04-12T07:38:39.905Z,84.85
2018-04-12T07:39:39.846Z,85.10
2018-04-12T07:40:39.725Z,85.14
2018-04-12T07:41:39.637Z,85.14
2018-04-12T07:42:39.551Z,85.62
2018-04-12T07:43:39.475Z,84.47
2018-04-12T07:44:39.402Z,84.66
2018-04-12T07:45:39.282Z,83.27
2018-04-12T07:46:39.192Z,84.61
2018-04-12T07:47:39.104Z,84.27
2018-04-12T07:48:39.014Z,83.22
2018-04-12T07:49:40.828Z,82.35
2018-04-12T07:50:38.840Z,83.06
2018-04-12T07:51:38.751Z,81.63
2018-04-12T07:52:38.662Z,82.30
2018-04-12T07:53:38.574Z,81.44
2018-04-12T07:54:38.518Z,81.86
2018-04-12T07:55:38.397Z,80.04
2018-04-12T07:56:38.326Z,79.13
2018-04-12T07:57:38.223Z,78.84
2018-04-12T07:58:38.136Z,78.74
2018-04-12T07:59:38.081Z,78.74
2018-04-12T08:00:37.962Z,76.67
2018-04-12T08:01:37.875Z,78.97
2018-04-12T08:02:37.804Z,77.06
2018-04-12T08:03:37.705Z,76.52
2018-04-12T08:04:37.649Z,74.12
2018-04-12T08:05:37.532Z,74.41
2018-04-12T08:06:37.445Z,72.78
2018-04-12T08:07:37.356Z,75.14
2018-04-12T08:08:37.275Z,74.95
2018-04-12T08:09:37.310Z,76.00
2018-04-12T08:10:37.101Z,74.85
2018-04-12T08:11:37.015Z,77.15
2018-04-12T08:12:36.930Z,76.86
2018-04-12T08:13:36.854Z,77.76
2018-04-12T08:14:36.792Z,73.93
2018-04-12T08:15:36.674Z,72.49
2018-04-12T08:16:36.687Z,73.80
2018-04-12T08:17:36.506Z,76.14
2018-04-12T08:18:36.442Z,72.30
2018-04-12T08:19:36.365Z,72.68
2018-04-12T08:20:36.251Z,71.37
2018-04-12T08:21:36.166Z,70.86
2018-04-12T08:22:36.082Z,71.63
2018-04-12T08:23:36.032Z,72.45
2018-04-12T08:24:35.948Z,73.41
2018-04-12T08:25:35.829Z,74.37
2018-04-12T08:26:35.746Z,74.51
2018-04-12T08:27:35.661Z,72.68
2018-04-12T08:28:35.577Z,71.34
2018-04-12T08:29:35.522Z,71.44
2018-04-12T08:30:35.498Z,70.80
2018-04-12T08:31:35.327Z,71.25
2018-04-12T08:32:35.239Z,70.80
2018-04-12T08:33:35.155Z,70.42
2018-04-12T08:34:35.136Z,69.01
2018-04-12T08:35:35.514Z,68.79
2018-04-12T08:36:34.904Z,69.36
2018-04-12T08:37:34.912Z,67.92
2018-04-12T08:38:34.738Z,69.65
2018-04-12T08:39:34.683Z,69.93
2018-04-12T08:40:34.568Z,69.46
2018-04-12T08:41:34.483Z,71.76
2018-04-12T08:42:34.402Z,71.44
2018-04-12T08:43:34.317Z,71.19
2018-04-12T08:44:34.329Z,70.99
2018-04-12T08:45:34.178Z,69.87
2018-04-12T08:46:34.068Z,68.69
2018-04-12T08:47:33.980Z,68.91
2018-04-12T08:48:33.904Z,68.34
2018-04-12T08:49:33.815Z,66.93
2018-04-12T08:50:33.760Z,66.86
2018-04-12T08:51:33.738Z,70.07
2018-04-12T08:52:33.562Z,70.64
2018-04-12T08:53:33.480Z,70.13
2018-04-12T08:54:33.399Z,68.82
2018-04-12T08:55:33.346Z,67.07
2018-04-12T08:56:33.231Z,66.64
2018-04-12T08:57:33.146Z,64.43
2018-04-12T08:58:33.156Z,64.63
2018-04-12T08:59:32.981Z,67.13
2018-04-12T09:00:32.928Z,65.20
2018-04-12T09:01:32.813Z,64.43
2018-04-12T09:02:32.730Z,64.47
2018-04-12T09:03:32.653Z,65.20
2018-04-12T09:04:32.564Z,66.77
2018-04-12T09:05:32.606Z,67.03
2018-04-12T09:06:32.399Z,65.40
2018-04-12T09:07:32.315Z,66.07
2018-04-12T09:08:32.232Z,64.09
2018-04-12T09:09:32.150Z,64.34
2018-04-12T09:10:32.096Z,64.66
2018-04-12T09:11:31.982Z,65.91
2018-04-12T09:12:31.903Z,64.28
2018-04-12T09:13:31.818Z,63.41
2018-04-12T09:14:31.735Z,63.06
2018-04-12T09:15:31.687Z,62.87
2018-04-12T09:16:31.571Z,62.35
2018-04-12T09:17:31.489Z,65.43
2018-04-12T09:18:31.406Z,63.89
2018-04-12T09:19:31.327Z,64.76
2018-04-12T09:20:31.274Z,63.99
2018-04-12T09:21:31.159Z,64.34
2018-04-12T09:22:31.074Z,66.93
2018-04-12T09:23:30.993Z,65.40
2018-04-12T09:24:30.909Z,63.89
2018-04-12T09:25:30.854Z,63.41
2018-04-12T09:26:30.747Z,62.13
2018-04-12T09:27:30.664Z,61.94
2018-04-12T09:28:30.584Z,63.18
2018-04-12T09:29:30.505Z,61.55
2018-04-12T09:30:30.449Z,61.46
2018-04-12T09:31:30.336Z,60.46
2018-04-12T09:32:30.257Z,60.11
2018-04-12T09:33:30.170Z,60.49
2018-04-12T09:34:30.091Z,60.52
2018-04-12T09:35:30.040Z,60.11
2018-04-12T09:36:29.924Z,60.21
2018-04-12T09:37:29.844Z,60.46
2018-04-12T09:38:29.762Z,62.07
2018-04-12T09:39:29.683Z,62.87
2018-04-12T09:40:29.632Z,61.94
2018-04-12T09:41:29.517Z,64.18
2018-04-12T09:42:29.436Z,59.66
2018-04-12T09:43:29.366Z,58.89
2018-04-12T09:44:29.272Z,58.98
2018-04-12T09:45:29.223Z,59.59
2018-04-12T09:46:29.109Z,58.12
2018-04-12T09:47:29.039Z,59.59
2018-04-12T09:48:28.951Z,59.11
2018-04-12T09:49:28.934Z,59.01
2018-04-12T09:50:28.818Z,58.17
2018-04-12T09:51:28.704Z,56.35
2018-04-12T09:52:28.623Z,55.41
2018-04-12T09:53:28.539Z,57.50
2018-04-12T09:54:28.462Z,58.02
2018-04-12T09:55:28.395Z,58.12
2018-04-12T09:56:28.336Z,57.45
2018-04-12T09:57:28.220Z,58.02
2018-04-12T09:58:28.137Z,58.85
2018-04-12T09:59:28.053Z,57.50
2018-04-12T10:00:28.006Z,56.25
2018-04-12T10:01:27.894Z,56.12
2018-04-12T10:02:27.815Z,57.09
2018-04-12T10:03:27.732Z,59.01
2018-04-12T10:04:27.654Z,56.90
2018-04-12T10:05:27.579Z,56.90
2018-04-12T10:06:27.526Z,59.04
2018-04-12T10:07:27.412Z,57.34
2018-04-12T10:08:27.332Z,56.63
2018-04-12T10:09:27.251Z,57.02
2018-04-12T10:10:27.172Z,57.14
2018-04-12T10:11:27.123Z,55.51
2018-04-12T10:12:27.009Z,56.80
2018-04-12T10:13:26.931Z,58.82
2018-04-12T10:14:26.848Z,58.63
2018-04-12T10:15:26.769Z,58.70
2018-04-12T10:16:26.720Z,59.69
2018-04-12T10:17:26.652Z,59.11
2018-04-12T10:18:26.537Z,58.05
2018-04-12T10:19:26.445Z,59.01
2018-04-12T10:20:26.366Z,58.12
2018-04-12T10:21:26.319Z,58.98
2018-04-12T10:22:26.204Z,59.30
2018-04-12T10:23:26.124Z,57.98
2018-04-12T10:24:26.050Z,57.50
2018-04-12T10:25:25.965Z,57.83
2018-04-12T10:26:25.911Z,58.70
2018-04-12T10:27:25.807Z,59.17
2018-04-12T10:28:25.809Z,59.66
2018-04-12T10:29:25.644Z,58.89
2018-04-12T10:30:25.560Z,57.37
2018-04-12T10:31:25.509Z,57.73
2018-04-12T10:32:25.397Z,57.37
2018-04-12T10:33:25.318Z,56.80
2018-04-12T10:34:25.269Z,55.35
2018-04-12T10:35:25.153Z,56.60
2018-04-12T10:36:25.103Z,57.09
2018-04-12T10:37:24.991Z,58.82
2018-04-12T10:38:24.912Z,59.20
2018-04-12T10:39:24.831Z,57.95
2018-04-12T10:40:24.749Z,59.04
2018-04-12T10:41:24.696Z,57.50
2018-04-12T10:42:24.587Z,56.73
2018-04-12T10:43:24.506Z,56.82
2018-04-12T10:44:24.468Z,56.92
2018-04-12T10:45:24.345Z,56.85
2018-04-12T10:46:24.295Z,56.05
2018-04-12T10:47:24.183Z,58.78
2018-04-12T10:48:24.101Z,57.27
2018-04-12T10:49:24.022Z,55.05
2018-04-12T10:50:23.939Z,54.40
2018-04-12T10:51:23.890Z,54.53
2018-04-12T10:52:23.777Z,52.57
2018-04-12T10:53:23.705Z,52.01
2018-04-12T10:54:23.617Z,52.35
2018-04-12T10:55:23.535Z,53.70
2018-04-12T10:56:23.483Z,53.41
2018-04-12T10:57:23.632Z,52.61
2018-04-12T10:58:23.294Z,53.77
2018-04-12T10:59:23.250Z,53.58
2018-04-12T11:00:23.136Z,56.15
2018-04-12T11:01:23.087Z,56.22
2018-04-12T11:02:22.975Z,57.73
2018-04-12T11:03:22.906Z,57.42
2018-04-12T11:04:22.906Z,57.80
2018-04-12T11:05:22.733Z,59.17
2018-04-12T11:06:22.655Z,58.53
2018-04-12T11:07:22.602Z,56.37
2018-04-12T11:08:22.496Z,55.41
2018-04-12T11:09:22.412Z,55.22
2018-04-12T11:10:22.330Z,55.31
2018-04-12T11:11:22.341Z,55.51
2018-04-12T11:12:22.197Z,54.61
2018-04-12T11:13:22.087Z,56.37
2018-04-12T11:14:22.005Z,56.66
2018-04-12T11:15:21.926Z,55.67
2018-04-12T11:16:21.850Z,56.66
2018-04-12T11:17:21.798Z,54.54
2018-04-12T11:18:21.793Z,55.41
2018-04-12T11:19:21.605Z,56.47
2018-04-12T11:20:21.519Z,56.27
2018-04-12T11:21:21.442Z,55.79
2018-04-12T11:22:21.391Z,54.66
2018-04-12T11:23:21.278Z,56.18
2018-04-12T11:24:21.197Z,56.37
2018-04-12T11:25:21.231Z,55.60
2018-04-12T11:26:21.035Z,56.92
2018-04-12T11:27:20.987Z,58.08
2018-04-12T11:28:20.903Z,58.05
2018-04-12T11:29:20.847Z,57.50
2018-04-12T11:30:20.714Z,57.65
2018-04-12T11:31:20.633Z,54.38
2018-04-12T11:32:20.671Z,53.34
2018-04-12T11:33:20.470Z,55.49
2018-04-12T11:34:20.428Z,52.62
2018-04-12T11:35:20.313Z,52.65
2018-04-12T11:36:20.229Z,51.49
2018-04-12T11:37:20.178Z,50.31
2018-04-12T11:38:20.159Z,51.07
2018-04-12T11:39:19.989Z,51.73
2018-04-12T11:40:19.908Z,51.75
2018-04-12T11:41:19.829Z,51.49
2018-04-12T11:42:19.779Z,52.01
2018-04-12T11:43:19.669Z,53.37
2018-04-12T11:44:19.586Z,52.76
2018-04-12T11:45:19.551Z,53.25
2018-04-12T11:46:19.430Z,54.09
2018-04-12T11:47:19.381Z,55.08
2018-04-12T11:48:19.270Z,54.28
2018-04-12T11:49:19.193Z,55.15
2018-04-12T11:50:19.114Z,55.34
2018-04-12T11:51:19.032Z,55.56
2018-04-12T11:52:18.984Z,54.40
2018-04-12T11:53:18.872Z,54.33
2018-04-12T11:54:18.794Z,52.72
2018-04-12T11:55:18.716Z,52.98
2018-04-12T11:56:18.636Z,53.53
2018-04-12T11:57:18.587Z,53.41
2018-04-12T11:58:18.474Z,54.50
2018-04-12T11:59:18.394Z,54.28
2018-04-12T12:00:18.316Z,53.44
2018-04-12T12:01:18.235Z,53.15
2018-04-12T12:02:18.192Z,53.73
2018-04-12T12:03:18.077Z,52.57
2018-04-12T12:04:17.994Z,52.67
2018-04-12T12:05:17.917Z,52.57
2018-04-12T12:06:17.836Z,53.73
2018-04-12T12:07:17.790Z,54.47
2018-04-12T12:08:17.676Z,55.41
2018-04-12T12:09:17.594Z,55.22
2018-04-12T12:10:17.516Z,55.99
2018-04-12T12:11:17.440Z,56.49
2018-04-12T12:12:17.386Z,56.30
2018-04-12T12:13:17.280Z,56.49
2018-04-12T12:14:17.195Z,56.09
2018-04-12T12:15:17.112Z,57.31
2018-04-12T12:16:17.032Z,57.89
2018-04-12T12:17:16.981Z,59.07
2018-04-12T12:18:16.869Z,57.40
2018-04-12T12:19:16.789Z,57.69
2018-04-12T12:20:16.706Z,57.14
2018-04-12T12:21:16.629Z,57.65
2018-04-12T12:22:16.551Z,56.43
2018-04-12T12:23:16.500Z,55.78
2018-04-12T12:24:16.387Z,55.33
2018-04-12T12:25:16.310Z,56.58
2018-04-12T12:26:16.226Z,53.39
2018-04-12T12:27:16.253Z,51.93
2018-04-12T12:28:16.097Z,51.13
2018-04-12T12:29:15.983Z,49.60
2018-04-12T12:30:15.903Z,51.71
2018-04-12T12:31:15.819Z,51.56
2018-04-12T12:32:15.741Z,51.10
2018-04-12T12:33:15.691Z,50.91
2018-04-12T12:34:15.673Z,51.68
2018-04-12T12:35:15.502Z,51.39
2018-04-12T12:36:15.420Z,51.59
2018-04-12T12:37:15.404Z,53.42
2018-04-12T12:38:15.312Z,52.11
2018-04-12T12:39:15.181Z,51.99
2018-04-12T12:40:15.103Z,54.60
2018-04-12T12:41:15.112Z,53.80
2018-04-12T12:42:14.940Z,54.09
2018-04-12T12:43:14.892Z,54.38
2018-04-12T12:44:14.779Z,53.61
2018-04-12T12:45:14.703Z,54.47
2018-04-12T12:46:14.619Z,55.41
2018-04-12T12:47:14.538Z,54.74
2018-04-12T12:48:14.583Z,55.22
2018-04-12T12:49:14.376Z,55.34
2018-04-12T12:50:14.298Z,56.69
2018-04-12T12:51:14.217Z,56.40